createdAt,value
2019-02-20T00:01:30.194Z,8.00
2019-02-20T00:04:01.791Z,8.83
2019-02-20T00:06:33.372Z,11.57
2019-02-20T00:09:05.568Z,8.57
2019-02-20T00:11:38.673Z,8.53
2019-02-20T00:14:10.742Z,8.70
2019-02-20T00:16:42.415Z,7.80
2019-02-20T00:19:14.008Z,12.33
2019-02-20T00:21:45.608Z,6.47
2019-02-20T00:24:17.201Z,10.83
2019-02-20T00:26:48.813Z,12.93
2019-02-20T00:29:20.461Z,9.03
2019-02-20T00:31:52.082Z,9.10
2019-02-20T00:34:23.615Z,10.33
2019-02-20T00:36:55.133Z,6.57
2019-02-20T00:39:26.643Z,7.43
2019-02-20T00:41:58.237Z,11.63
2019-02-20T00:44:49.814Z,7.73
2019-02-20T00:47:21.141Z,8.60
2019-02-20T00:49:52.746Z,8.13
2019-02-20T00:52:31.636Z,8.13
2019-02-20T00:55:03.370Z,6.80
2019-02-20T00:57:34.978Z,7.73
2019-02-20T01:00:12.724Z,6.20
2019-02-20T01:02:44.559Z,14.40
2019-02-20T01:05:16.075Z,8.67
2019-02-20T01:07:47.706Z,7.53
2019-02-20T01:10:19.301Z,7.53
2019-02-20T01:12:51.580Z,9.77
2019-02-20T01:15:23.536Z,8.70
2019-02-20T01:17:55.055Z,10.87
2019-02-20T01:20:27.073Z,7.57
2019-02-20T01:23:00.082Z,10.03
2019-02-20T01:25:32.139Z,9.53
2019-02-20T01:28:03.700Z,7.50
2019-02-20T01:30:35.712Z,10.23
2019-02-20T01:33:07.781Z,8.30
2019-02-20T01:35:39.355Z,6.50
2019-02-20T01:38:10.945Z,10.13
2019-02-20T01:40:42.605Z,9.97
2019-02-20T01:43:14.265Z,11.77
2019-02-20T01:45:45.802Z,7.27
2019-02-20T01:48:17.305Z,9.53
2019-02-20T01:50:48.831Z,9.00
2019-02-20T01:53:20.364Z,8.87
2019-02-20T01:55:51.889Z,8.60
2019-02-20T01:58:23.583Z,11.87
2019-02-20T02:00:55.588Z,7.67
2019-02-20T02:03:27.185Z,10.30
2019-02-20T02:05:58.804Z,6.60
2019-02-20T02:08:30.318Z,10.20
2019-02-20T02:11:02.072Z,7.97
2019-02-20T02:13:33.800Z,7.70
2019-02-20T02:16:05.460Z,10.40
2019-02-20T02:18:37.051Z,9.97
2019-02-20T02:21:08.657Z,11.87
2019-02-20T02:23:40.172Z,8.20
2019-02-20T02:26:11.823Z,10.20
2019-02-20T02:28:43.329Z,10.40
2019-02-20T02:31:14.970Z,10.20
2019-02-20T02:33:46.505Z,10.27
2019-02-20T02:36:18.059Z,8.60
2019-02-20T02:38:49.649Z,9.33
2019-02-20T02:41:21.223Z,7.90
2019-02-20T02:43:52.831Z,7.90
2019-02-20T02:46:24.511Z,7.83
2019-02-20T02:48:57.425Z,9.40
2019-02-20T02:51:28.949Z,6.73
2019-02-20T02:54:00.472Z,10.87
2019-02-20T02:56:32.055Z,7.93
2019-02-20T02:59:03.670Z,8.33
2019-02-20T03:01:35.174Z,10.33
2019-02-20T03:04:07.820Z,8.73
2019-02-20T03:06:39.497Z,10.53
2019-02-20T03:09:11.004Z,9.57
2019-02-20T03:11:42.617Z,12.63
2019-02-20T03:14:14.275Z,9.00
2019-02-20T03:16:47.977Z,8.57
2019-02-20T03:19:19.505Z,9.53
2019-02-20T03:21:51.154Z,8.37
2019-02-20T03:24:22.663Z,9.33
2019-02-20T03:26:54.196Z,7.93
2019-02-20T03:29:26.213Z,9.67
2019-02-20T03:31:58.283Z,9.17
2019-02-20T03:34:29.884Z,11.27
2019-02-20T03:37:01.504Z,7.20
2019-02-20T03:39:33.040Z,7.70
2019-02-20T03:42:04.728Z,5.57
2019-02-20T03:44:36.239Z,10.60
2019-02-20T03:47:08.251Z,7.50
2019-02-20T03:49:39.787Z,6.97
2019-02-20T03:52:11.383Z,8.67
2019-02-20T03:54:42.998Z,7.73
2019-02-20T03:57:14.586Z,7.50
2019-02-20T03:59:46.266Z,9.23
2019-02-20T04:02:18.311Z,7.40
2019-02-20T04:04:49.900Z,8.07
2019-02-20T04:07:21.479Z,8.03
2019-02-20T04:09:53.091Z,11.27
2019-02-20T04:12:24.637Z,9.67
2019-02-20T04:14:56.302Z,5.53
2019-02-20T04:17:29.448Z,11.53
2019-02-20T04:20:00.979Z,13.20
2019-02-20T04:22:32.614Z,9.17
2019-02-20T04:25:04.878Z,8.93
2019-02-20T04:27:44.176Z,9.30
2019-02-20T04:30:23.779Z,10.20
2019-02-20T04:33:02.618Z,5.43
2019-02-20T04:35:42.118Z,9.50
2019-02-20T04:38:15.053Z,7.07
2019-02-20T04:40:54.543Z,10.47
2019-02-20T04:43:40.577Z,7.93
2019-02-20T04:46:22.559Z,7.97
2019-02-20T04:49:16.059Z,8.87
2019-02-20T04:51:52.607Z,7.70
2019-02-20T04:54:24.233Z,13.53
2019-02-20T04:56:55.921Z,9.70
2019-02-20T04:59:35.178Z,8.87
2019-02-20T05:02:13.072Z,6.80
2019-02-20T05:04:44.771Z,11.53
2019-02-20T05:07:16.506Z,7.00
2019-02-20T05:09:48.088Z,5.93
2019-02-20T05:12:21.430Z,6.70
2019-02-20T05:14:53.133Z,8.63
2019-02-20T05:17:28.403Z,8.63
2019-02-20T05:20:01.438Z,11.93
2019-02-20T05:22:33.229Z,10.30
2019-02-20T05:25:05.489Z,9.63
2019-02-20T05:39:04.574Z,9.40
2019-02-20T05:41:03.043Z,11.27
2019-02-20T05:43:34.647Z,10.70
2019-02-20T05:49:54.657Z,7.80
2019-02-20T05:53:25.062Z,9.20
2019-02-20T05:55:33.795Z,11.30
2019-02-20T05:58:05.479Z,10.43
2019-02-20T06:00:45.304Z,9.33
2019-02-20T06:03:34.360Z,9.87
2019-02-20T06:06:06.271Z,9.80
2019-02-20T06:10:24.740Z,12.03
2019-02-20T06:11:34.998Z,10.43
2019-02-20T06:14:16.063Z,14.17
2019-02-20T06:16:47.700Z,10.43
2019-02-20T06:19:22.662Z,7.67
2019-02-20T06:21:54.347Z,12.00
2019-02-20T06:24:26.013Z,10.77
2019-02-20T06:26:57.707Z,15.77
2019-02-20T06:29:32.585Z,17.90
2019-02-20T06:32:04.353Z,11.80
2019-02-20T06:34:41.074Z,9.97
2019-02-20T06:37:14.657Z,10.57
2019-02-20T06:40:03.525Z,8.87
2019-02-20T06:42:25.726Z,10.57
2019-02-20T06:44:57.548Z,10.40
2019-02-20T06:47:38.464Z,14.17
2019-02-20T06:50:22.122Z,15.07
2019-02-20T06:52:54.247Z,9.93
2019-02-20T06:55:27.629Z,19.33
2019-02-20T07:01:20.090Z,13.93
2019-02-20T07:03:56.476Z,9.27
2019-02-20T07:06:35.967Z,13.50
2019-02-20T07:09:32.014Z,14.90
2019-02-20T07:12:37.707Z,14.33
2019-02-20T07:15:45.847Z,13.00
2019-02-20T07:18:46.272Z,12.73
2019-02-20T07:22:03.909Z,17.60
2019-02-20T07:25:02.435Z,13.43
2019-02-20T07:31:24.488Z,16.30
2019-02-20T07:40:45.711Z,12.83
2019-02-20T07:43:26.494Z,13.27
2019-02-20T07:49:46.336Z,14.93
2019-02-20T07:51:46.247Z,14.53
2019-02-20T07:57:13.682Z,16.67
2019-02-20T07:59:56.416Z,16.17
2019-02-20T08:08:43.672Z,11.90
2019-02-20T08:12:02.902Z,16.70
2019-02-20T08:14:02.541Z,16.90
2019-02-20T08:16:51.926Z,16.00
2019-02-20T08:19:21.834Z,11.03
2019-02-20T08:21:58.414Z,15.87
2019-02-20T08:24:34.298Z,14.50
2019-02-20T08:27:05.679Z,18.47
2019-02-20T08:29:42.017Z,11.77
2019-02-20T08:32:16.896Z,15.97
2019-02-20T08:34:55.463Z,13.80
2019-02-20T08:37:32.915Z,13.43
2019-02-20T08:40:41.087Z,12.33
2019-02-20T08:42:57.198Z,10.40
2019-02-20T08:45:42.470Z,11.77
2019-02-20T08:48:14.284Z,16.17
2019-02-20T08:50:45.983Z,14.70
2019-02-20T08:53:35.954Z,12.20
2019-02-20T08:56:26.406Z,13.77
2019-02-20T09:01:45.950Z,9.03
2019-02-20T09:04:34.129Z,10.60
2019-02-20T09:10:33.958Z,10.87
2019-02-20T09:14:12.862Z,10.57
2019-02-20T09:16:43.138Z,10.30
2019-02-20T09:19:55.547Z,10.53
2019-02-20T09:33:34.447Z,11.27
2019-02-20T09:36:45.319Z,14.77
2019-02-20T10:15:12.062Z,9.40
2019-02-20T10:21:34.154Z,11.47
2019-02-20T10:24:15.438Z,10.83
2019-02-20T10:27:00.366Z,10.23
2019-02-20T10:29:27.729Z,10.43
2019-02-20T10:32:21.924Z,12.00
2019-02-20T10:34:54.477Z,8.73
2019-02-20T10:37:33.926Z,13.00
2019-02-20T10:40:15.892Z,11.30
2019-02-20T10:42:56.370Z,8.80
2019-02-20T10:45:36.816Z,9.03
2019-02-20T10:51:22.510Z,6.93
2019-02-20T10:53:56.161Z,9.67
2019-02-20T10:56:35.891Z,12.77
2019-02-20T10:59:14.924Z,8.43
2019-02-20T11:04:35.037Z,9.07
2019-02-20T11:07:06.774Z,13.00
2019-02-20T11:09:46.343Z,10.60
2019-02-20T11:12:25.671Z,9.07
2019-02-20T11:15:01.609Z,9.50
2019-02-20T11:17:37.446Z,8.50
2019-02-20T11:20:15.360Z,10.13
2019-02-20T11:23:03.099Z,10.27
2019-02-20T11:25:37.974Z,7.93
2019-02-20T11:28:27.066Z,9.80
2019-02-20T11:31:07.535Z,11.77
2019-02-20T11:33:45.384Z,7.53
2019-02-20T11:36:16.992Z,9.50
2019-02-20T11:38:56.124Z,10.20
2019-02-20T11:41:27.788Z,9.90
2019-02-20T11:44:20.867Z,9.40
2019-02-20T11:50:36.173Z,11.60
2019-02-20T11:52:26.620Z,8.60
2019-02-20T11:55:05.494Z,13.37
2019-02-20T11:57:47.744Z,10.50
2019-02-20T12:00:25.699Z,10.33
2019-02-20T12:03:25.543Z,7.73
2019-02-20T12:06:16.474Z,9.77
2019-02-20T12:08:55.705Z,14.77
2019-02-20T12:14:14.016Z,9.67
2019-02-20T12:16:45.698Z,9.00
2019-02-20T12:19:17.374Z,15.30
2019-02-20T12:21:55.551Z,11.87
2019-02-20T12:24:33.930Z,12.63
2019-02-20T12:27:05.587Z,9.13
2019-02-20T12:29:37.361Z,10.57
2019-02-20T12:35:17.619Z,10.80
2019-02-20T12:38:03.877Z,9.37
2019-02-20T12:40:34.972Z,6.77
2019-02-20T12:43:12.923Z,11.00
2019-02-20T12:45:44.448Z,8.43
2019-02-20T12:48:22.786Z,13.87
2019-02-20T12:51:55.869Z,8.70
2019-02-20T12:54:15.532Z,8.53
2019-02-20T13:10:56.800Z,7.47
2019-02-20T13:17:10.462Z,9.17
2019-02-20T13:20:22.113Z,7.40
2019-02-20T13:30:15.900Z,7.53
2019-02-20T14:07:06.822Z,13.37
2019-02-20T14:09:46.561Z,12.43
2019-02-20T14:12:23.577Z,14.47
2019-02-20T14:30:03.481Z,6.53
2019-02-20T14:32:51.683Z,9.27
2019-02-20T14:35:23.746Z,7.43
2019-02-20T14:38:06.969Z,10.40
2019-02-20T14:40:45.136Z,12.13
2019-02-20T14:43:16.785Z,7.10
2019-02-20T14:45:51.809Z,5.90
2019-02-20T14:48:42.339Z,7.77
2019-02-20T14:51:12.870Z,10.20
2019-02-20T14:53:44.404Z,7.20
2019-02-20T14:56:16.001Z,3.47
2019-02-20T14:58:48.854Z,10.00
2019-02-20T15:01:21.032Z,7.37
2019-02-20T15:03:53.015Z,4.97
2019-02-20T15:06:24.934Z,9.00
2019-02-20T15:08:56.639Z,7.70
2019-02-20T15:11:28.393Z,6.73
2019-02-20T15:14:00.311Z,4.60
2019-02-20T15:16:33.247Z,10.97
2019-02-20T15:19:05.214Z,5.00
2019-02-20T15:21:37.144Z,5.53
2019-02-20T15:24:08.913Z,4.33
2019-02-20T15:26:42.643Z,4.67
2019-02-20T15:29:14.448Z,7.57
2019-02-20T15:31:46.069Z,5.03
2019-02-20T15:34:17.780Z,17.27
2019-02-20T15:36:50.269Z,5.27
2019-02-20T15:39:22.254Z,5.57
2019-02-20T15:41:54.335Z,7.33
2019-02-20T15:44:25.966Z,4.20
2019-02-20T15:46:57.691Z,5.73
2019-02-20T15:49:30.181Z,5.43
2019-02-20T15:52:02.612Z,6.20
2019-02-20T15:54:34.326Z,6.90
2019-02-20T15:57:07.625Z,5.90
2019-02-20T15:59:39.454Z,4.87
2019-02-20T16:02:11.442Z,6.97
2019-02-20T16:04:43.203Z,6.27
2019-02-20T16:07:17.313Z,6.47
2019-02-20T16:09:52.076Z,8.67
2019-02-20T16:12:23.661Z,6.63
2019-02-20T16:14:55.591Z,10.47
2019-02-20T16:17:27.210Z,7.27
2019-02-20T16:19:58.951Z,9.87
2019-02-20T16:22:31.890Z,8.43
2019-02-20T16:25:06.407Z,16.37
2019-02-20T16:27:46.494Z,11.10
2019-02-20T16:30:16.747Z,14.43
2019-02-20T16:32:48.744Z,10.93
2019-02-20T16:35:20.382Z,11.47
2019-02-20T16:37:53.212Z,13.83
2019-02-20T16:40:24.879Z,12.53
2019-02-20T16:42:56.634Z,13.53
2019-02-20T16:45:28.406Z,15.60
2019-02-20T16:48:00.310Z,21.87
2019-02-20T16:50:41.401Z,20.17
2019-02-20T16:53:13.234Z,17.57
2019-02-20T16:55:45.105Z,18.73
2019-02-20T16:58:26.351Z,20.30
2019-02-20T17:00:57.980Z,22.77
2019-02-20T17:03:29.735Z,17.57
2019-02-20T17:06:01.472Z,20.43
2019-02-20T17:08:33.228Z,16.67
2019-02-20T17:11:04.998Z,23.33
2019-02-20T17:13:36.743Z,23.13
2019-02-20T17:16:10.325Z,23.90
2019-02-20T17:18:41.805Z,28.63
2019-02-20T17:21:13.576Z,18.10
2019-02-20T17:23:47.353Z,20.27
2019-02-20T17:26:19.090Z,17.80
2019-02-20T17:28:50.865Z,20.30
2019-02-20T17:31:22.604Z,18.67
2019-02-20T17:33:56.184Z,25.17
2019-02-20T17:36:27.774Z,26.00
2019-02-20T17:38:59.301Z,22.67
2019-02-20T17:41:31.111Z,22.03
2019-02-20T17:44:03.043Z,26.07
2019-02-20T17:46:34.728Z,25.73
2019-02-20T17:49:06.463Z,20.10
2019-02-20T17:51:38.215Z,21.37
2019-02-20T17:54:09.914Z,27.17
2019-02-20T17:56:54.053Z,23.00
2019-02-20T17:59:25.889Z,16.30
2019-02-20T18:01:58.484Z,18.73
2019-02-20T18:04:30.299Z,25.67
2019-02-20T18:07:01.951Z,18.53
2019-02-20T18:09:47.773Z,18.27
2019-02-20T18:12:19.269Z,15.93
2019-02-20T18:14:51.860Z,20.63
2019-02-20T18:17:23.731Z,18.50
2019-02-20T18:19:56.354Z,26.97
2019-02-20T18:22:28.155Z,23.40
2019-02-20T18:24:59.816Z,24.83
2019-02-20T18:27:31.503Z,21.60
2019-02-20T18:30:03.088Z,26.90
2019-02-20T18:32:36.299Z,20.03
2019-02-20T18:35:11.254Z,28.07
2019-02-20T18:37:42.860Z,16.97
2019-02-20T18:40:18.309Z,24.93
2019-02-20T18:42:49.940Z,21.20
2019-02-20T18:45:21.662Z,23.10
2019-02-20T18:47:53.332Z,24.37
2019-02-20T18:50:24.897Z,25.17
2019-02-20T18:52:56.668Z,29.43
2019-02-20T18:55:28.259Z,21.07
2019-02-20T18:58:00.085Z,27.50
2019-02-20T19:00:32.027Z,22.80
2019-02-20T19:03:03.727Z,28.23
2019-02-20T19:05:35.339Z,20.60
2019-02-20T19:08:40.523Z,24.13
2019-02-20T19:11:25.749Z,21.70
2019-02-20T19:14:05.001Z,27.87
2019-02-20T19:17:16.395Z,19.37
2019-02-20T19:20:04.201Z,20.80
2019-02-20T19:23:13.808Z,26.63
2019-02-20T19:26:22.137Z,27.03
2019-02-20T19:29:35.003Z,22.10
2019-02-20T19:32:43.128Z,24.47
2019-02-20T19:35:39.314Z,22.53
2019-02-20T19:38:36.801Z,21.50
2019-02-20T19:42:01.993Z,23.20
2019-02-20T19:45:22.157Z,19.10
2019-02-20T19:49:03.129Z,17.77
2019-02-20T19:52:11.715Z,21.80
2019-02-20T19:55:20.378Z,23.83
2019-02-20T19:58:42.076Z,28.13
2019-02-20T20:01:53.242Z,24.67
2019-02-20T20:04:56.913Z,18.23
2019-02-20T20:07:45.323Z,28.57
2019-02-20T20:10:39.468Z,22.27
2019-02-20T20:13:15.920Z,22.77
2019-02-20T20:16:07.329Z,31.17
2019-02-20T20:18:59.590Z,27.10
2019-02-20T20:21:41.889Z,25.37
2019-02-20T20:24:22.754Z,33.87
2019-02-20T20:27:29.194Z,25.00
2019-02-20T20:30:28.940Z,24.33
2019-02-20T20:33:17.224Z,25.53
2019-02-20T20:36:37.948Z,24.73
2019-02-20T20:39:39.271Z,27.23
2019-02-20T20:42:58.591Z,28.23
2019-02-20T20:46:11.557Z,34.20
2019-02-20T20:48:50.523Z,34.47
2019-02-20T20:52:04.701Z,36.77
2019-02-20T20:54:49.089Z,23.37
2019-02-20T20:58:06.977Z,32.97
2019-02-20T21:00:52.216Z,26.60
2019-02-20T21:03:28.819Z,26.57
2019-02-20T21:06:46.282Z,29.43
2019-02-20T21:09:33.217Z,25.33
2019-02-20T21:12:42.023Z,37.17
2019-02-20T21:16:01.998Z,32.23
2019-02-20T21:26:28.699Z,51.83
2019-02-20T21:29:27.849Z,57.43
2019-02-20T21:32:32.535Z,50.50
2019-02-20T21:35:49.860Z,40.77
2019-02-20T21:38:41.193Z,41.13
2019-02-20T21:41:35.564Z,53.17
2019-02-20T21:44:40.284Z,41.17
2019-02-20T21:47:45.553Z,33.97
2019-02-20T21:50:53.847Z,35.80
2019-02-20T21:53:59.330Z,40.23
2019-02-20T21:56:38.518Z,49.27
2019-02-20T21:59:48.341Z,36.83
2019-02-20T22:02:52.647Z,44.47
2019-02-20T22:05:52.716Z,39.13
2019-02-20T22:08:47.168Z,37.67
2019-02-20T22:11:42.864Z,36.23
2019-02-20T22:14:36.817Z,35.37
2019-02-20T22:17:25.380Z,45.93
2019-02-20T22:20:35.103Z,32.80
2019-02-20T22:23:23.467Z,34.10
2019-02-20T22:26:05.609Z,45.23
2019-02-20T22:29:03.858Z,33.60
2019-02-20T22:32:08.387Z,30.23
2019-02-20T22:34:50.619Z,31.07
2019-02-20T22:37:53.538Z,33.87
2019-02-20T22:40:55.543Z,35.63
2019-02-20T22:44:06.738Z,24.90
2019-02-20T22:47:04.204Z,34.20
2019-02-20T22:49:58.324Z,37.77
2019-02-20T22:52:37.415Z,29.07
2019-02-20T22:55:39.559Z,25.97
2019-02-20T22:58:31.094Z,25.03
2019-02-20T23:01:25.861Z,20.23
2019-02-20T23:04:14.665Z,29.70
2019-02-20T23:07:12.159Z,23.17
2019-02-20T23:10:36.982Z,32.47
2019-02-20T23:13:34.420Z,25.23
2019-02-20T23:16:05.938Z,22.93
2019-02-20T23:18:37.455Z,24.20
2019-02-20T23:21:08.965Z,22.00
2019-02-20T23:23:40.481Z,28.73
2019-02-20T23:26:12.126Z,21.70
2019-02-20T23:28:43.705Z,27.63
2019-02-20T23:31:15.292Z,27.93
2019-02-20T23:33:46.830Z,22.13
2019-02-20T23:36:18.413Z,25.07
2019-02-20T23:38:49.945Z,26.30
2019-02-20T23:41:21.530Z,29.70
2019-02-20T23:43:53.030Z,26.67
2019-02-20T23:46:24.587Z,21.07
2019-02-20T23:48:56.096Z,22.70
2019-02-20T23:51:27.622Z,20.67
2019-02-20T23:53:59.113Z,19.17
2019-02-20T23:56:30.707Z,28.03
2019-02-20T23:59:02.195Z,28.17
